createdAt,value
2022-08-25T00:01:53.193Z,18.80
2022-08-25T00:04:21.988Z,17.80
2022-08-25T00:06:49.605Z,19.50
2022-08-25T00:09:18.629Z,17.80
2022-08-25T00:11:49.195Z,17.90
2022-08-25T00:14:45.144Z,17.90
2022-08-25T00:17:12.190Z,17.80
2022-08-25T00:19:39.172Z,18.20
2022-08-25T00:22:07.788Z,18.30
2022-08-25T00:24:34.621Z,17.70
2022-08-25T00:27:01.897Z,18.50
2022-08-25T00:29:30.872Z,19.00
2022-08-25T00:31:58.324Z,17.70
2022-08-25T00:34:29.666Z,18.40
2022-08-25T00:36:56.691Z,18.20
2022-08-25T00:39:24.643Z,18.00
2022-08-25T00:41:53.960Z,17.60
2022-08-25T00:44:21.231Z,17.60
2022-08-25T00:46:53.622Z,18.00
2022-08-25T00:49:36.288Z,17.50
2022-08-25T00:52:10.716Z,17.90
2022-08-25T00:54:47.561Z,17.20
2022-08-25T00:57:18.240Z,17.30
2022-08-25T00:59:49.063Z,18.90
2022-08-25T01:02:17.853Z,18.10
2022-08-25T01:04:49.205Z,17.50
2022-08-25T01:07:18.973Z,17.50
2022-08-25T01:09:48.175Z,17.50
2022-08-25T01:12:15.266Z,17.70
2022-08-25T01:14:43.153Z,18.30
2022-08-25T01:17:09.919Z,17.70
2022-08-25T01:19:36.721Z,17.80
2022-08-25T01:22:05.569Z,17.40
2022-08-25T01:24:54.743Z,17.40
2022-08-25T01:27:21.619Z,17.30
2022-08-25T01:29:49.230Z,17.30
2022-08-25T01:32:16.037Z,18.00
2022-08-25T01:34:45.231Z,17.20
2022-08-25T01:37:15.705Z,18.50
2022-08-25T01:39:43.370Z,17.40
2022-08-25T01:42:18.070Z,17.50
2022-08-25T01:44:46.264Z,17.10
2022-08-25T01:47:14.780Z,17.00
2022-08-25T01:49:41.620Z,17.90
2022-08-25T01:52:11.381Z,17.10
2022-08-25T01:54:38.623Z,17.20
2022-08-25T01:57:05.527Z,17.20
2022-08-25T01:59:32.686Z,17.80
2022-08-25T02:02:00.219Z,17.20
2022-08-25T02:04:32.158Z,17.10
2022-08-25T02:07:00.871Z,17.10
2022-08-25T02:09:27.747Z,17.10
2022-08-25T02:11:54.786Z,18.10
2022-08-25T02:14:21.921Z,17.80
2022-08-25T02:16:50.985Z,17.60
2022-08-25T02:19:18.774Z,17.80
2022-08-25T02:21:45.984Z,16.90
2022-08-25T02:24:14.084Z,16.90
2022-08-25T02:26:41.381Z,17.60
2022-08-25T02:29:09.219Z,16.90
2022-08-25T02:31:36.743Z,18.80
2022-08-25T02:34:04.414Z,16.90
2022-08-25T02:36:32.334Z,16.90
2022-08-25T02:38:59.477Z,16.90
2022-08-25T02:41:30.737Z,17.10
2022-08-25T02:44:02.802Z,17.50
2022-08-25T02:46:31.143Z,17.70
2022-08-25T02:48:58.803Z,16.80
2022-08-25T02:51:30.087Z,16.80
2022-08-25T02:53:58.624Z,16.90
2022-08-25T02:56:27.451Z,16.90
2022-08-25T02:58:54.270Z,17.10
2022-08-25T03:01:22.106Z,16.80
2022-08-25T03:03:55.656Z,17.70
2022-08-25T03:06:24.127Z,16.60
2022-08-25T03:08:52.220Z,17.50
2022-08-25T03:11:19.542Z,17.10
2022-08-25T03:13:47.050Z,16.60
2022-08-25T03:16:14.013Z,16.50
2022-08-25T03:18:42.274Z,16.90
2022-08-25T03:21:10.271Z,17.10
2022-08-25T03:23:37.303Z,16.40
2022-08-25T03:26:22.969Z,16.40
2022-08-25T03:28:49.808Z,16.30
2022-08-25T03:31:16.709Z,16.40
2022-08-25T03:33:43.563Z,17.20
2022-08-25T03:36:12.337Z,16.40
2022-08-25T03:38:39.913Z,16.40
2022-08-25T03:41:18.554Z,16.40
2022-08-25T03:43:45.394Z,16.50
2022-08-25T03:46:30.712Z,16.90
2022-08-25T03:48:58.219Z,16.50
2022-08-25T03:51:28.491Z,16.50
2022-08-25T03:53:58.294Z,16.50
2022-08-25T03:56:27.152Z,16.40
2022-08-25T03:58:55.292Z,16.40
2022-08-25T04:01:22.987Z,16.40
2022-08-25T04:03:50.007Z,16.50
2022-08-25T04:06:18.502Z,17.50
2022-08-25T04:08:45.867Z,16.30
2022-08-25T04:11:18.412Z,16.60
2022-08-25T04:13:46.687Z,16.50
2022-08-25T04:16:15.958Z,16.50
2022-08-25T04:18:43.941Z,17.70
2022-08-25T04:21:12.017Z,16.40
2022-08-25T04:23:41.772Z,17.40
2022-08-25T04:26:13.560Z,17.00
2022-08-25T04:28:41.070Z,17.10
2022-08-25T04:31:09.673Z,18.60
2022-08-25T04:33:38.199Z,16.60
2022-08-25T04:36:11.431Z,16.80
2022-08-25T04:38:39.698Z,16.20
2022-08-25T04:41:09.035Z,16.60
2022-08-25T04:43:37.098Z,17.50
2022-08-25T04:46:14.664Z,16.30
2022-08-25T04:48:48.041Z,16.20
2022-08-25T04:51:18.292Z,16.30
2022-08-25T04:53:45.570Z,16.20
2022-08-25T04:56:17.363Z,17.10
2022-08-25T04:58:45.423Z,16.20
2022-08-25T05:01:17.887Z,17.80
2022-08-25T05:03:46.963Z,18.30
2022-08-25T05:06:16.222Z,16.20
2022-08-25T05:08:45.982Z,16.20
2022-08-25T05:11:14.923Z,16.70
2022-08-25T05:13:43.340Z,16.20
2022-08-25T05:16:11.500Z,17.00
2022-08-25T05:18:38.826Z,17.00
2022-08-25T05:21:18.848Z,16.00
2022-08-25T05:23:47.040Z,16.30
2022-08-25T05:26:20.665Z,16.30
2022-08-25T05:28:49.744Z,16.40
2022-08-25T05:31:17.767Z,16.50
2022-08-25T05:33:44.723Z,16.60
2022-08-25T05:36:14.142Z,16.60
2022-08-25T05:38:41.901Z,16.70
2022-08-25T05:41:11.926Z,16.80
2022-08-25T05:43:40.628Z,16.70
2022-08-25T05:46:08.632Z,17.70
2022-08-25T05:48:36.239Z,16.90
2022-08-25T05:51:05.482Z,17.10
2022-08-25T05:53:33.989Z,17.20
2022-08-25T05:56:01.811Z,18.00
2022-08-25T05:58:30.203Z,18.50
2022-08-25T06:00:58.529Z,17.80
2022-08-25T06:03:25.426Z,19.20
2022-08-25T06:05:52.248Z,18.80
2022-08-25T06:08:19.954Z,18.50
2022-08-25T06:10:52.282Z,18.70
2022-08-25T06:13:27.001Z,19.50
2022-08-25T06:16:00.098Z,18.70
2022-08-25T06:18:27.011Z,20.40
2022-08-25T06:20:54.082Z,19.80
2022-08-25T06:23:20.894Z,19.20
2022-08-25T06:25:52.355Z,21.00
2022-08-25T06:28:20.424Z,19.40
2022-08-25T06:30:48.209Z,19.80
2022-08-25T06:33:15.593Z,20.80
2022-08-25T06:35:43.520Z,20.20
2022-08-25T06:38:11.154Z,20.20
2022-08-25T06:40:38.628Z,20.30
2022-08-25T06:43:08.871Z,20.30
2022-08-25T06:45:36.096Z,20.60
2022-08-25T06:48:03.037Z,20.90
2022-08-25T06:50:30.008Z,21.10
2022-08-25T06:52:57.088Z,21.10
2022-08-25T06:55:23.924Z,22.00
2022-08-25T06:58:03.940Z,21.20
2022-08-25T07:00:32.818Z,21.40
2022-08-25T07:03:01.453Z,21.60
2022-08-25T07:05:40.919Z,21.90
2022-08-25T07:08:11.943Z,21.90
2022-08-25T07:10:39.101Z,21.70
2022-08-25T07:13:05.879Z,21.70
2022-08-25T07:15:32.738Z,22.60
2022-08-25T07:17:59.514Z,22.00
2022-08-25T07:22:58.530Z,22.00
2022-08-25T07:25:25.354Z,21.90
2022-08-25T07:27:55.803Z,23.70
2022-08-25T07:30:25.270Z,22.00
2022-08-25T07:32:55.464Z,22.20
2022-08-25T07:35:26.180Z,22.50
2022-08-25T07:37:57.151Z,23.00
2022-08-25T07:40:32.023Z,22.70
2022-08-25T07:43:02.090Z,22.70
2022-08-25T07:45:31.933Z,22.80
2022-08-25T07:48:04.564Z,23.60
2022-08-25T07:50:31.685Z,23.50
2022-08-25T07:52:59.176Z,24.40
2022-08-25T07:55:28.509Z,24.80
2022-08-25T07:57:57.201Z,24.50
2022-08-25T08:00:28.033Z,24.20
2022-08-25T08:02:55.390Z,24.60
2022-08-25T08:05:24.049Z,24.30
2022-08-25T08:07:51.740Z,24.60
2022-08-25T08:13:07.560Z,25.10
2022-08-25T08:15:35.093Z,25.60
2022-08-25T08:18:03.214Z,25.30
2022-08-25T08:20:42.394Z,25.60
2022-08-25T08:23:11.183Z,25.70
2022-08-25T08:25:38.026Z,25.90
2022-08-25T08:28:07.051Z,26.20
2022-08-25T08:30:36.848Z,26.20
2022-08-25T08:33:10.041Z,26.50
2022-08-25T08:35:38.335Z,26.50
2022-08-25T08:38:13.163Z,26.80
2022-08-25T08:41:29.662Z,27.10
2022-08-25T08:44:26.186Z,27.40
2022-08-25T08:47:04.374Z,26.80
2022-08-25T08:49:49.529Z,26.70
2022-08-25T08:52:19.473Z,26.60
2022-08-25T08:54:52.652Z,27.10
2022-08-25T08:57:25.383Z,27.60
2022-08-25T08:59:57.692Z,27.80
2022-08-25T09:02:51.657Z,27.70
2022-08-25T09:05:22.531Z,28.10
2022-08-25T09:07:59.831Z,27.80
2022-08-25T09:10:34.592Z,28.00
2022-08-25T09:13:19.146Z,28.40
2022-08-25T09:16:33.722Z,28.10
2022-08-25T09:19:23.914Z,28.50
2022-08-25T09:22:33.375Z,28.80
2022-08-25T09:25:39.791Z,29.30
2022-08-25T09:28:28.437Z,29.80
2022-08-25T09:31:02.070Z,30.00
2022-08-25T09:33:29.988Z,30.30
2022-08-25T09:35:57.739Z,29.90
2022-08-25T09:38:26.263Z,29.50
2022-08-25T09:40:57.982Z,29.50
2022-08-25T09:43:37.069Z,30.00
2022-08-25T09:46:27.014Z,30.20
2022-08-25T09:48:57.614Z,29.90
2022-08-25T09:51:38.018Z,30.50
2022-08-25T09:54:18.143Z,30.60
2022-08-25T09:57:01.185Z,30.60
2022-08-25T09:59:38.178Z,30.90
2022-08-25T10:02:28.793Z,30.40
2022-08-25T10:04:56.830Z,30.50
2022-08-25T10:07:36.700Z,30.90
2022-08-25T10:10:16.756Z,30.20
2022-08-25T10:12:51.514Z,29.70
2022-08-25T10:15:30.723Z,30.00
2022-08-25T10:18:17.411Z,30.40
2022-08-25T10:20:44.690Z,30.90
2022-08-25T10:23:19.041Z,30.90
2022-08-25T10:26:00.392Z,31.40
2022-08-25T10:28:55.363Z,31.30
2022-08-25T10:31:36.742Z,31.70
2022-08-25T10:34:05.493Z,32.20
2022-08-25T10:36:47.059Z,32.10
2022-08-25T10:39:36.331Z,32.10
2022-08-25T10:42:30.746Z,32.00
2022-08-25T10:45:44.723Z,31.40
2022-08-25T10:48:30.272Z,30.80
2022-08-25T10:51:25.391Z,31.00
2022-08-25T10:54:17.309Z,31.10
2022-08-25T10:56:58.448Z,31.90
2022-08-25T10:59:46.950Z,31.90
2022-08-25T11:02:19.983Z,31.80
2022-08-25T11:04:59.526Z,32.50
2022-08-25T11:07:33.995Z,32.90
2022-08-25T11:10:25.515Z,33.30
2022-08-25T11:12:59.706Z,33.90
2022-08-25T11:16:15.598Z,33.90
2022-08-25T11:18:59.419Z,33.30
2022-08-25T11:21:49.608Z,33.10
2022-08-25T11:24:39.963Z,33.60
2022-08-25T11:27:15.835Z,33.00
2022-08-25T11:29:51.935Z,32.30
2022-08-25T11:32:21.090Z,33.10
2022-08-25T11:34:47.908Z,33.90
2022-08-25T11:37:23.934Z,33.50
2022-08-25T11:40:21.209Z,33.40
2022-08-25T11:43:25.260Z,32.90
2022-08-25T11:46:06.295Z,34.00
2022-08-25T11:48:59.607Z,34.70
2022-08-25T11:51:36.487Z,34.30
2022-08-25T11:54:18.182Z,33.90
2022-08-25T11:56:53.685Z,34.00
2022-08-25T12:00:00.255Z,34.20
2022-08-25T12:02:44.221Z,34.10
2022-08-25T12:05:21.999Z,34.70
2022-08-25T12:08:26.107Z,34.40
2022-08-25T12:11:10.943Z,34.30
2022-08-25T12:13:47.990Z,34.80
2022-08-25T12:16:36.159Z,35.60
2022-08-25T12:19:31.095Z,36.40
2022-08-25T12:22:19.187Z,35.80
2022-08-25T12:25:21.176Z,35.40
2022-08-25T12:28:11.748Z,35.60
2022-08-25T12:30:54.843Z,34.80
2022-08-25T12:33:43.249Z,35.00
2022-08-25T12:36:25.337Z,35.00
2022-08-25T12:38:53.684Z,34.70
2022-08-25T12:41:26.319Z,34.60
2022-08-25T12:44:08.538Z,35.30
2022-08-25T12:46:39.515Z,35.80
2022-08-25T12:49:15.621Z,35.80
2022-08-25T12:52:21.401Z,36.30
2022-08-25T12:55:06.114Z,36.20
2022-08-25T12:57:57.828Z,35.10
2022-08-25T13:00:35.334Z,35.10
2022-08-25T13:06:14.881Z,36.00
2022-08-25T13:08:46.686Z,36.40
2022-08-25T13:11:20.544Z,36.20
2022-08-25T13:14:09.165Z,35.90
2022-08-25T13:16:37.214Z,36.30
2022-08-25T13:19:06.809Z,36.20
2022-08-25T13:21:38.138Z,36.00
2022-08-25T13:24:19.753Z,35.90
2022-08-25T13:26:50.290Z,36.90
2022-08-25T13:29:24.293Z,36.90
2022-08-25T13:32:02.971Z,36.70
2022-08-25T13:34:39.143Z,36.00
2022-08-25T13:37:29.822Z,36.10
2022-08-25T13:40:25.887Z,36.20
2022-08-25T13:43:07.951Z,36.40
2022-08-25T13:45:41.004Z,36.90
2022-08-25T13:48:21.190Z,36.40
2022-08-25T13:50:52.079Z,36.70
2022-08-25T13:53:25.532Z,36.70
2022-08-25T13:55:56.962Z,37.00
2022-08-25T13:58:44.598Z,37.90
2022-08-25T14:01:51.061Z,36.80
2022-08-25T14:04:32.290Z,36.60
2022-08-25T14:07:25.445Z,35.70
2022-08-25T14:09:58.788Z,36.20
2022-08-25T14:12:33.737Z,35.80
2022-08-25T14:15:06.687Z,35.70
2022-08-25T14:17:39.072Z,36.20
2022-08-25T14:20:17.879Z,36.60
2022-08-25T14:22:44.736Z,36.50
2022-08-25T14:25:11.554Z,36.50
2022-08-25T14:28:05.721Z,36.50
2022-08-25T14:30:32.554Z,36.50
2022-08-25T14:33:02.362Z,36.40
2022-08-25T14:35:29.631Z,36.70
2022-08-25T14:37:58.320Z,36.30
2022-08-25T14:40:25.175Z,36.00
2022-08-25T14:42:52.011Z,36.70
2022-08-25T14:45:19.704Z,36.10
2022-08-25T14:47:50.006Z,35.90
2022-08-25T14:50:24.956Z,35.90
2022-08-25T14:52:52.309Z,36.50
2022-08-25T14:55:31.247Z,37.60
2022-08-25T14:57:59.299Z,37.90
2022-08-25T15:00:26.500Z,37.30
2022-08-25T15:02:55.099Z,36.70
2022-08-25T15:05:28.279Z,36.40
2022-08-25T15:08:14.335Z,36.80
2022-08-25T15:10:43.393Z,37.00
2022-08-25T15:13:10.698Z,37.30
2022-08-25T15:15:52.996Z,37.40
2022-08-25T15:18:21.982Z,37.10
2022-08-25T15:20:50.136Z,37.30
2022-08-25T15:23:18.600Z,37.10
2022-08-25T15:25:47.922Z,36.70
2022-08-25T15:28:17.307Z,36.90
2022-08-25T15:30:45.581Z,36.70
2022-08-25T15:33:13.616Z,36.10
2022-08-25T15:35:41.573Z,36.30
2022-08-25T15:38:10.362Z,36.10
2022-08-25T15:40:39.078Z,35.90
2022-08-25T15:43:06.198Z,35.70
2022-08-25T15:45:36.083Z,35.10
2022-08-25T15:48:04.412Z,35.10
2022-08-25T15:50:34.511Z,35.10
2022-08-25T15:53:01.421Z,34.70
2022-08-25T15:55:28.276Z,34.30
2022-08-25T15:57:55.798Z,34.60
2022-08-25T16:00:22.753Z,34.70
2022-08-25T16:02:50.350Z,34.90
2022-08-25T16:05:17.300Z,34.80
2022-08-25T16:07:46.093Z,34.60
2022-08-25T16:10:18.470Z,34.10
2022-08-25T16:12:45.477Z,33.80
2022-08-25T16:15:12.592Z,33.60
2022-08-25T16:17:40.702Z,33.50
2022-08-25T16:20:13.662Z,33.40
2022-08-25T16:22:41.322Z,33.40
2022-08-25T16:25:08.722Z,33.30
2022-08-25T16:27:38.964Z,33.20
2022-08-25T16:30:08.213Z,33.10
2022-08-25T16:32:35.637Z,32.80
2022-08-25T16:35:03.650Z,32.70
2022-08-25T16:37:30.452Z,32.80
2022-08-25T16:39:57.594Z,32.60
2022-08-25T16:42:26.374Z,32.60
2022-08-25T16:44:54.129Z,32.40
2022-08-25T16:47:25.134Z,32.40
2022-08-25T16:49:54.051Z,32.10
2022-08-25T16:52:40.688Z,32.00
2022-08-25T16:55:14.262Z,32.10
2022-08-25T16:57:54.304Z,32.00
2022-08-25T17:00:24.890Z,31.60
2022-08-25T17:02:59.255Z,31.40
2022-08-25T17:05:28.188Z,31.40
2022-08-25T17:08:14.880Z,31.40
2022-08-25T17:10:43.442Z,31.40
2022-08-25T17:13:11.415Z,31.50
2022-08-25T17:15:43.839Z,31.30
2022-08-25T17:18:12.771Z,31.10
2022-08-25T17:20:41.202Z,31.10
2022-08-25T17:23:12.355Z,30.90
2022-08-25T17:25:42.989Z,30.90
2022-08-25T17:28:12.057Z,30.90
2022-08-25T17:30:39.352Z,30.90
2022-08-25T17:33:06.269Z,30.70
2022-08-25T17:35:39.171Z,30.60
2022-08-25T17:38:06.339Z,30.50
2022-08-25T17:40:34.016Z,30.30
2022-08-25T17:43:01.849Z,30.20
2022-08-25T17:45:28.695Z,30.00
2022-08-25T17:47:55.674Z,30.00
2022-08-25T17:50:22.608Z,29.90
2022-08-25T17:52:49.376Z,29.80
2022-08-25T17:55:16.643Z,29.60
2022-08-25T17:57:43.755Z,29.40
2022-08-25T18:00:12.557Z,29.40
2022-08-25T18:02:40.543Z,29.10
2022-08-25T18:05:07.603Z,28.90
2022-08-25T18:07:34.454Z,28.50
2022-08-25T18:10:01.237Z,28.30
2022-08-25T18:12:29.103Z,28.40
2022-08-25T18:14:57.101Z,28.30
2022-08-25T18:17:25.880Z,28.30
2022-08-25T18:19:52.956Z,28.30
2022-08-25T18:22:20.408Z,28.10
2022-08-25T18:24:47.253Z,28.10
2022-08-25T18:27:14.147Z,28.00
2022-08-25T18:29:41.446Z,27.80
2022-08-25T18:32:09.571Z,27.80
2022-08-25T18:34:39.260Z,27.50
2022-08-25T18:37:25.735Z,27.10
2022-08-25T18:40:11.084Z,27.00
2022-08-25T18:42:38.595Z,27.00
2022-08-25T18:45:08.044Z,26.90
2022-08-25T18:47:39.077Z,26.90
2022-08-25T18:50:06.725Z,26.80
2022-08-25T18:52:33.899Z,26.80
2022-08-25T18:55:01.462Z,26.80
2022-08-25T18:57:28.262Z,26.60
2022-08-25T18:59:55.804Z,26.40
2022-08-25T19:02:22.643Z,26.40
2022-08-25T19:04:52.685Z,26.40
2022-08-25T19:07:19.676Z,26.40
2022-08-25T19:09:46.634Z,26.40
2022-08-25T19:12:22.193Z,26.40
2022-08-25T19:14:49.775Z,26.70
2022-08-25T19:17:17.154Z,26.30
2022-08-25T19:19:44.700Z,26.30
2022-08-25T19:22:38.081Z,26.30
2022-08-25T19:24:58.964Z,26.10
2022-08-25T19:27:26.150Z,25.90
2022-08-25T19:29:53.274Z,25.80
2022-08-25T19:32:20.224Z,25.60
2022-08-25T19:34:51.355Z,25.60
2022-08-25T19:37:19.193Z,25.60
2022-08-25T19:39:52.631Z,25.60
2022-08-25T19:42:34.942Z,25.60
2022-08-25T19:45:09.606Z,25.70
2022-08-25T19:47:37.642Z,25.60
2022-08-25T19:50:09.312Z,25.60
2022-08-25T19:52:36.839Z,25.60
2022-08-25T19:55:04.059Z,25.60
2022-08-25T19:57:42.436Z,25.60
2022-08-25T20:00:16.005Z,25.90
2022-08-25T20:02:43.446Z,25.60
2022-08-25T20:05:11.186Z,25.60
2022-08-25T20:07:38.469Z,25.60
2022-08-25T20:10:08.959Z,25.60
2022-08-25T20:12:41.539Z,25.50
2022-08-25T20:15:09.542Z,25.50
2022-08-25T20:17:36.366Z,25.40
2022-08-25T20:20:06.474Z,25.40
2022-08-25T20:22:33.924Z,25.40
2022-08-25T20:25:22.192Z,25.60
2022-08-25T20:27:53.693Z,25.30
2022-08-25T20:30:30.584Z,25.10
2022-08-25T20:32:58.273Z,25.10
2022-08-25T20:35:27.029Z,25.00
2022-08-25T20:37:55.551Z,25.00
2022-08-25T20:40:25.583Z,25.00
2022-08-25T20:42:53.637Z,25.10
2022-08-25T20:45:21.918Z,25.70
2022-08-25T20:47:49.782Z,25.00
2022-08-25T20:50:16.978Z,25.30
2022-08-25T20:52:44.509Z,25.10
2022-08-25T20:55:12.410Z,25.00
2022-08-25T20:57:39.575Z,25.30
2022-08-25T21:00:09.216Z,25.00
2022-08-25T21:02:36.673Z,25.00
2022-08-25T21:05:04.151Z,24.80
2022-08-25T21:07:31.306Z,24.80
2022-08-25T21:10:02.938Z,25.40
2022-08-25T21:12:31.425Z,24.70
2022-08-25T21:14:58.636Z,24.60
2022-08-25T21:17:25.628Z,24.50
2022-08-25T21:19:52.459Z,24.60
2022-08-25T21:22:19.316Z,25.10
2022-08-25T21:24:46.102Z,24.40
2022-08-25T21:27:13.033Z,24.30
2022-08-25T21:29:44.702Z,24.80
2022-08-25T21:32:21.745Z,24.10
2022-08-25T21:34:55.266Z,24.20
2022-08-25T21:37:23.577Z,24.10
2022-08-25T21:39:51.389Z,24.00
2022-08-25T21:42:23.937Z,25.30
2022-08-25T21:44:52.568Z,23.80
2022-08-25T21:47:21.089Z,23.70
2022-08-25T21:49:48.462Z,23.70
2022-08-25T21:52:15.516Z,23.50
2022-08-25T21:54:44.053Z,24.50
2022-08-25T21:57:10.854Z,23.40
2022-08-25T21:59:40.538Z,23.40
2022-08-25T22:02:10.489Z,23.60
2022-08-25T22:04:39.508Z,23.30
2022-08-25T22:07:08.102Z,23.20
2022-08-25T22:09:36.057Z,23.20
2022-08-25T22:12:03.997Z,23.20
2022-08-25T22:14:31.176Z,23.20
2022-08-25T22:16:58.009Z,23.00
2022-08-25T22:19:25.664Z,23.30
2022-08-25T22:21:53.997Z,23.40
2022-08-25T22:24:21.115Z,22.90
2022-08-25T22:26:49.157Z,22.90
2022-08-25T22:29:25.030Z,22.90
2022-08-25T22:32:00.690Z,23.90
2022-08-25T22:34:33.082Z,23.00
2022-08-25T22:37:01.820Z,23.00
2022-08-25T22:39:31.575Z,23.10
2022-08-25T22:41:59.207Z,23.10
2022-08-25T22:44:26.736Z,23.00
2022-08-25T22:46:53.851Z,23.00
2022-08-25T22:49:21.903Z,23.00
2022-08-25T22:51:48.981Z,23.00
2022-08-25T22:54:16.020Z,23.00
2022-08-25T22:56:43.454Z,22.90
2022-08-25T22:59:13.765Z,22.80
2022-08-25T23:01:43.129Z,22.80
2022-08-25T23:04:10.809Z,23.10
2022-08-25T23:06:39.246Z,22.70
2022-08-25T23:09:08.243Z,23.10
2022-08-25T23:11:38.570Z,22.70
2022-08-25T23:14:08.405Z,22.60
2022-08-25T23:16:35.443Z,22.60
2022-08-25T23:19:02.262Z,23.10
2022-08-25T23:21:48.013Z,22.40
2022-08-25T23:24:30.117Z,23.20
2022-08-25T23:27:02.360Z,22.40
2022-08-25T23:29:32.080Z,22.90
2022-08-25T23:31:59.009Z,22.40
2022-08-25T23:34:26.821Z,22.30
2022-08-25T23:36:55.911Z,22.40
2022-08-25T23:39:23.259Z,22.40
2022-08-25T23:41:51.732Z,22.30
2022-08-25T23:44:20.802Z,22.50
2022-08-25T23:46:48.624Z,23.10
2022-08-25T23:49:18.397Z,22.20
2022-08-25T23:51:48.069Z,22.20
2022-08-25T23:54:16.450Z,22.10
2022-08-25T23:56:51.396Z,22.10
2022-08-25T23:59:20.455Z,22.10
